The Force Of May Is With Us

Its so beautiful on the highveld at this time I could just sing.  But because there are children who are easily frightened nearby, I won’t.  Let’s just say that the environment is almost perfect for an aviator right now.  Just take a look at the weather METAR for today.

FALA
261200Z 24006KT 190V330 CAVOK 25/M03 Q1023 NOSIG
261100Z 26005KT 200V320 CAVOK 25/M02 Q1024 NOSIG
261000Z VRB03KT CAVOK 24/M01 Q1025 NOSIG

Ok all that means is that at 14h00 hours today (or 1200Z for Zulu which is Universal Standard Time or two hours behind CAT), the wind was 6 knots from 240 which is slap bang down the middle of Runway 245 Lanseria.  Admittedly it also reads 190V330 which means that its variable and sometimes 190 to 330.  So coming in to land could mean a slight adjustment left or right based on where where the 6knots of wind package is coming from.  Having landed in 30knot cross-winds in a Maule (with a real aviator expert alongside) 6knots is hardly stressful.

That’s the METAR or meteorological condition past.  How about the forecast?  The TAF or Air Forecast.  Well well.

TAF 261000Z 2612/2712 29005KT CAVOK         BECMG 2617/2619 VRB02KT         BECMG 2708/2710 28005KT         TX25/2612ZTN08/2704Z

The wind is likely to drop to 5knots CAVOK (Ceiling and Visibility OK) by the afternoon, and then slow still further at 19h00 local to variable 02knots.  A light little breath.  Beautiful.  When its VRB (variable) 20knots G (gusting) 30knots I start to clamp a sphincter.

But tonight its clear and that’s good because once more instructor Steve is going to help me further understand the mysteries of instrument flying and the weather won’t be throwing me any curve balls.  Well as far as my aviation weather app shows.

Check out the surface level wind map courtesy of Nullschool.  I haven’t seen so few low pressure systems off South Africa in more than a year.  I’m sure the weather fundi’s out there will dispute this,  but its very very still out there right now.  And by there I mean most of Southern Africa.

nullschool

The low pressure systems are in a trough along the south of Madagascar, just off the east coast, and another trough along the west Coast.  For my Cape Town friends, sorry for you.  As you can see from the wind image alongside,  the bright green band is indicative of high winds blowing in from the Antarctic. It’s cold and rainy in Cape Town.  But for most of the rest of us in Southern Africa, the blue blue blue means very little, if any, wind.

But that’s not likely to last long as the winter cold fronts blow in from the south west. Still I’m going to enjoy the aviating and learning about vectors and radials and such and being thrown around the dark inside ZS-JAB with a big smile on me dial.  And here below is a satellite photo of the clouds.  Note Cape Town’s Med climate vs the rest.

Shem.

satellite

 

Advertisements

Leave a Reply

Fill in your details below or click an icon to log in:

WordPress.com Logo

You are commenting using your WordPress.com account. Log Out / Change )

Twitter picture

You are commenting using your Twitter account. Log Out / Change )

Facebook photo

You are commenting using your Facebook account. Log Out / Change )

Google+ photo

You are commenting using your Google+ account. Log Out / Change )

Connecting to %s